Saint Francis River (Missouri), Wappapello (07039500)

StateMissouriLatestLow (332 cfs)
RiverSaint Francis RiverRatingObservedEstimated
Updated2020-07-13 19:00 (37 minutes ago)Flood - The river is flooding. Obstacles can be treacherous or deadly. The river should be avoided at this stage for casual trips and definitely for the inexperienced. Trips should be attempted only with protective gear and equipment.Flood(none)7958
Discharge332 cfs (median: 227 cfs)High - The river is high and potentially dangerous, especially for the young and / or inexperienced. Normal stream obstacles are sometimes difficult to navigate. Extended distances can be attempted, but canoe travel may not be advisable.High(none)2240
Height5.84 feetGood - Conditions are ideal for a canoe or kayak. Boats typically will drag on fewer than one-quarter of riffles, if at all, and portages are unnecessary or rare. Normal float lengths can be attempted without a problem.Good(none)676
TrendFalling (falling over 24 hours)Low - River is low but can still be floated. Some riffles are okay but most come with significant dragging and might need a portage. Float lengths should be reduced to accommodate low flow, dragging, and portages.Low(none)255
USGSExternal icon USGS Site (External icon Google Maps)Poor - River is too low to float comfortably. Most or all riffles will drag or must be portaged and some obstacles (such as slick shelf rock) cause undue problems. Avoid the river at this stage for casual paddling trips.Poor(none)40

Trending Data

Plot Image

Trips for Saint Francis River (Missouri), Wappapello (07039500)

DateStartEndDistanceConditionDischargeHeightFishingDetails

A total of 0 rows are displayed.

Condition Descriptions

Fishing Conditions

Fish Species

Notes

Classic Trip List

The classic River Trips application is still available for use. It is updated with the new system using a data retrofit. It is no longer maintained. The original River Trips application is no longer updated (as of 1 Dec 2016) but can be checked for errors or for the condition of the data before it was converted to the new system.

Gauge Data Table

ObservationHeightDischargeMaximum
Discharge
Minimum
Discharge
Mean
Discharge
P05P10P20P25P50
(Median)
P75P80P90P95
2020-07-13 19:00 5.84 332 4650 (1945) 31 (1944) 649 40 43 104 163 227 467 703 2480 3450
2020-07-13 18:00 5.87 337 4650 (1945) 31 (1944) 649 40 43 104 163 227 467 703 2480 3450
2020-07-13 17:00 5.90 342 4650 (1945) 31 (1944) 649 40 43 104 163 227 467 703 2480 3450
2020-07-13 16:00 5.94 349 4650 (1945) 31 (1944) 649 40 43 104 163 227 467 703 2480 3450
2020-07-13 15:00 5.99 358 4650 (1945) 31 (1944) 649 40 43 104 163 227 467 703 2480 3450
2020-07-13 14:00 6.04 367 4650 (1945) 31 (1944) 649 40 43 104 163 227 467 703 2480 3450
2020-07-13 13:00 6.10 378 4650 (1945) 31 (1944) 649 40 43 104 163 227 467 703 2480 3450
2020-07-13 12:00 6.19 393 4650 (1945) 31 (1944) 649 40 43 104 163 227 467 703 2480 3450
2020-07-13 11:00 6.29 410 4650 (1945) 31 (1944) 649 40 43 104 163 227 467 703 2480 3450
2020-07-13 10:00 6.45 436 4650 (1945) 31 (1944) 649 40 43 104 163 227 467 703 2480 3450
2020-07-13 09:00 6.52 448 4650 (1945) 31 (1944) 649 40 43 104 163 227 467 703 2480 3450
2020-07-13 08:00 6.53 450 4650 (1945) 31 (1944) 649 40 43 104 163 227 467 703 2480 3450
2020-07-13 07:00 6.53 450 4650 (1945) 31 (1944) 649 40 43 104 163 227 467 703 2480 3450
2020-07-13 06:00 6.53 450 4650 (1945) 31 (1944) 649 40 43 104 163 227 467 703 2480 3450
2020-07-13 05:00 6.53 450 4650 (1945) 31 (1944) 649 40 43 104 163 227 467 703 2480 3450
2020-07-13 04:00 6.53 450 4650 (1945) 31 (1944) 649 40 43 104 163 227 467 703 2480 3450
2020-07-13 03:00 6.53 450 4650 (1945) 31 (1944) 649 40 43 104 163 227 467 703 2480 3450
2020-07-13 02:00 6.53 450 4650 (1945) 31 (1944) 649 40 43 104 163 227 467 703 2480 3450
2020-07-13 01:00 6.53 450 4650 (1945) 31 (1944) 649 40 43 104 163 227 467 703 2480 3450
2020-07-13 00:00 6.53 450 4650 (1945) 31 (1944) 649 40 43 104 163 227 467 703 2480 3450
2020-07-12 23:00 6.53 450 4700 (1945) 12 (1978) 699 40 57 107 162 245 498 997 2470 3180
2020-07-12 22:00 6.53 450 4700 (1945) 12 (1978) 699 40 57 107 162 245 498 997 2470 3180
2020-07-12 21:00 6.53 450 4700 (1945) 12 (1978) 699 40 57 107 162 245 498 997 2470 3180
2020-07-12 20:00 6.53 450 4700 (1945) 12 (1978) 699 40 57 107 162 245 498 997 2470 3180
2020-07-12 19:00 6.53 450 4700 (1945) 12 (1978) 699 40 57 107 162 245 498 997 2470 3180
2020-07-12 18:00 6.53 450 4700 (1945) 12 (1978) 699 40 57 107 162 245 498 997 2470 3180
2020-07-12 17:00 6.53 450 4700 (1945) 12 (1978) 699 40 57 107 162 245 498 997 2470 3180
2020-07-12 16:00 6.53 450 4700 (1945) 12 (1978) 699 40 57 107 162 245 498 997 2470 3180
2020-07-12 15:00 6.53 450 4700 (1945) 12 (1978) 699 40 57 107 162 245 498 997 2470 3180
2020-07-12 14:00 6.53 450 4700 (1945) 12 (1978) 699 40 57 107 162 245 498 997 2470 3180
2020-07-12 13:00 6.54 451 4700 (1945) 12 (1978) 699 40 57 107 162 245 498 997 2470 3180
2020-07-12 12:00 6.54 451 4700 (1945) 12 (1978) 699 40 57 107 162 245 498 997 2470 3180
2020-07-12 11:00 6.54 451 4700 (1945) 12 (1978) 699 40 57 107 162 245 498 997 2470 3180
2020-07-12 10:00 6.54 451 4700 (1945) 12 (1978) 699 40 57 107 162 245 498 997 2470 3180
2020-07-12 09:00 6.54 451 4700 (1945) 12 (1978) 699 40 57 107 162 245 498 997 2470 3180
2020-07-12 08:00 6.55 453 4700 (1945) 12 (1978) 699 40 57 107 162 245 498 997 2470 3180
2020-07-12 07:00 6.55 453 4700 (1945) 12 (1978) 699 40 57 107 162 245 498 997 2470 3180
2020-07-12 06:00 6.55 453 4700 (1945) 12 (1978) 699 40 57 107 162 245 498 997 2470 3180
2020-07-12 05:00 6.55 453 4700 (1945) 12 (1978) 699 40 57 107 162 245 498 997 2470 3180
2020-07-12 04:00 6.55 453 4700 (1945) 12 (1978) 699 40 57 107 162 245 498 997 2470 3180
2020-07-12 03:00 6.55 453 4700 (1945) 12 (1978) 699 40 57 107 162 245 498 997 2470 3180
2020-07-12 02:00 6.54 451 4700 (1945) 12 (1978) 699 40 57 107 162 245 498 997 2470 3180
2020-07-12 01:00 6.54 451 4700 (1945) 12 (1978) 699 40 57 107 162 245 498 997 2470 3180
2020-07-12 00:00 6.54 451 4700 (1945) 12 (1978) 699 40 57 107 162 245 498 997 2470 3180
2020-07-11 22:00 6.54 451 4700 (1945) 11 (1978) 708 39 40 76 100 226 642 1070 2610 3390
2020-07-11 21:00 6.54 451 4700 (1945) 11 (1978) 708 39 40 76 100 226 642 1070 2610 3390
2020-07-11 20:00 6.54 451 4700 (1945) 11 (1978) 708 39 40 76 100 226 642 1070 2610 3390
2020-07-11 19:00 6.54 451 4700 (1945) 11 (1978) 708 39 40 76 100 226 642 1070 2610 3390
2020-07-11 18:00 6.54 451 4700 (1945) 11 (1978) 708 39 40 76 100 226 642 1070 2610 3390
2020-07-11 17:00 6.54 451 4700 (1945) 11 (1978) 708 39 40 76 100 226 642 1070 2610 3390
2020-07-11 16:00 6.54 451 4700 (1945) 11 (1978) 708 39 40 76 100 226 642 1070 2610 3390
2020-07-11 15:00 6.54 451 4700 (1945) 11 (1978) 708 39 40 76 100 226 642 1070 2610 3390
2020-07-11 14:00 6.55 453 4700 (1945) 11 (1978) 708 39 40 76 100 226 642 1070 2610 3390
2020-07-11 13:00 6.54 451 4700 (1945) 11 (1978) 708 39 40 76 100 226 642 1070 2610 3390
2020-07-11 12:00 6.54 451 4700 (1945) 11 (1978) 708 39 40 76 100 226 642 1070 2610 3390
2020-07-11 11:00 6.54 451 4700 (1945) 11 (1978) 708 39 40 76 100 226 642 1070 2610 3390
2020-07-11 10:00 6.55 453 4700 (1945) 11 (1978) 708 39 40 76 100 226 642 1070 2610 3390
2020-07-11 09:00 6.55 453 4700 (1945) 11 (1978) 708 39 40 76 100 226 642 1070 2610 3390
2020-07-11 08:00 6.55 453 4700 (1945) 11 (1978) 708 39 40 76 100 226 642 1070 2610 3390
2020-07-11 07:00 6.56 455 4700 (1945) 11 (1978) 708 39 40 76 100 226 642 1070 2610 3390
2020-07-11 06:00 6.56 455 4700 (1945) 11 (1978) 708 39 40 76 100 226 642 1070 2610 3390
2020-07-11 05:00 6.56 455 4700 (1945) 11 (1978) 708 39 40 76 100 226 642 1070 2610 3390
2020-07-11 04:00 6.56 455 4700 (1945) 11 (1978) 708 39 40 76 100 226 642 1070 2610 3390
2020-07-11 03:00 6.56 455 4700 (1945) 11 (1978) 708 39 40 76 100 226 642 1070 2610 3390
2020-07-11 02:00 6.55 453 4700 (1945) 11 (1978) 708 39 40 76 100 226 642 1070 2610 3390
2020-07-11 01:00 6.55 453 4700 (1945) 11 (1978) 708 39 40 76 100 226 642 1070 2610 3390
2020-07-11 00:00 6.55 453 4700 (1945) 11 (1978) 708 39 40 76 100 226 642 1070 2610 3390
2020-07-10 23:00 6.55 453 4750 (1957) 15 (1978) 723 40 43 102 167 240 693 1120 2540 3200
2020-07-10 22:00 6.55 453 4750 (1957) 15 (1978) 723 40 43 102 167 240 693 1120 2540 3200
2020-07-10 21:00 6.55 453 4750 (1957) 15 (1978) 723 40 43 102 167 240 693 1120 2540 3200
2020-07-10 20:00 6.55 453 4750 (1957) 15 (1978) 723 40 43 102 167 240 693 1120 2540 3200
2020-07-10 19:00 6.55 453 4750 (1957) 15 (1978) 723 40 43 102 167 240 693 1120 2540 3200
2020-07-10 18:00 6.55 453 4750 (1957) 15 (1978) 723 40 43 102 167 240 693 1120 2540 3200
2020-07-10 17:00 6.54 451 4750 (1957) 15 (1978) 723 40 43 102 167 240 693 1120 2540 3200
2020-07-10 16:00 6.55 453 4750 (1957) 15 (1978) 723 40 43 102 167 240 693 1120 2540 3200
2020-07-10 15:00 6.55 453 4750 (1957) 15 (1978) 723 40 43 102 167 240 693 1120 2540 3200
2020-07-10 14:00 6.55 453 4750 (1957) 15 (1978) 723 40 43 102 167 240 693 1120 2540 3200
2020-07-10 13:00 6.55 453 4750 (1957) 15 (1978) 723 40 43 102 167 240 693 1120 2540 3200
2020-07-10 12:00 6.55 453 4750 (1957) 15 (1978) 723 40 43 102 167 240 693 1120 2540 3200
2020-07-10 11:00 6.56 455 4750 (1957) 15 (1978) 723 40 43 102 167 240 693 1120 2540 3200
2020-07-10 10:00 6.56 455 4750 (1957) 15 (1978) 723 40 43 102 167 240 693 1120 2540 3200
2020-07-10 09:00 6.56 455 4750 (1957) 15 (1978) 723 40 43 102 167 240 693 1120 2540 3200
2020-07-10 08:00 6.57 457 4750 (1957) 15 (1978) 723 40 43 102 167 240 693 1120 2540 3200
2020-07-10 07:00 6.57 457 4750 (1957) 15 (1978) 723 40 43 102 167 240 693 1120 2540 3200
2020-07-10 06:00 6.57 457 4750 (1957) 15 (1978) 723 40 43 102 167 240 693 1120 2540 3200
2020-07-10 05:00 6.57 457 4750 (1957) 15 (1978) 723 40 43 102 167 240 693 1120 2540 3200
2020-07-10 04:00 6.57 457 4750 (1957) 15 (1978) 723 40 43 102 167 240 693 1120 2540 3200
2020-07-10 03:00 6.57 457 4750 (1957) 15 (1978) 723 40 43 102 167 240 693 1120 2540 3200
2020-07-10 02:00 6.58 458 4750 (1957) 15 (1978) 723 40 43 102 167 240 693 1120 2540 3200
2020-07-10 01:00 6.57 457 4750 (1957) 15 (1978) 723 40 43 102 167 240 693 1120 2540 3200
2020-07-10 00:00 6.58 458 4750 (1957) 15 (1978) 723 40 43 102 167 240 693 1120 2540 3200
2020-07-09 23:00 6.58 458 5620 (1957) 7 (1978) 758 40 40 81 161 253 720 1150 2520 3170
2020-07-09 21:00 6.58 458 5620 (1957) 7 (1978) 758 40 40 81 161 253 720 1150 2520 3170
2020-07-09 20:00 6.58 458 5620 (1957) 7 (1978) 758 40 40 81 161 253 720 1150 2520 3170
2020-07-09 19:00 6.57 457 5620 (1957) 7 (1978) 758 40 40 81 161 253 720 1150 2520 3170
2020-07-09 18:00 6.58 458 5620 (1957) 7 (1978) 758 40 40 81 161 253 720 1150 2520 3170
2020-07-09 17:00 6.58 458 5620 (1957) 7 (1978) 758 40 40 81 161 253 720 1150 2520 3170
2020-07-09 16:00 6.58 458 5620 (1957) 7 (1978) 758 40 40 81 161 253 720 1150 2520 3170
2020-07-09 15:00 6.59 460 5620 (1957) 7 (1978) 758 40 40 81 161 253 720 1150 2520 3170
2020-07-09 14:00 6.59 460 5620 (1957) 7 (1978) 758 40 40 81 161 253 720 1150 2520 3170
2020-07-09 13:00 6.59 460 5620 (1957) 7 (1978) 758 40 40 81 161 253 720 1150 2520 3170
2020-07-09 12:00 6.60 462 5620 (1957) 7 (1978) 758 40 40 81 161 253 720 1150 2520 3170
2020-07-09 11:00 6.60 462 5620 (1957) 7 (1978) 758 40 40 81 161 253 720 1150 2520 3170
2020-07-09 10:00 6.61 463 5620 (1957) 7 (1978) 758 40 40 81 161 253 720 1150 2520 3170
2020-07-09 09:00 6.62 465 5620 (1957) 7 (1978) 758 40 40 81 161 253 720 1150 2520 3170
2020-07-09 08:00 6.63 467 5620 (1957) 7 (1978) 758 40 40 81 161 253 720 1150 2520 3170
2020-07-09 07:00 6.64 469 5620 (1957) 7 (1978) 758 40 40 81 161 253 720 1150 2520 3170
2020-07-09 06:00 6.65 470 5620 (1957) 7 (1978) 758 40 40 81 161 253 720 1150 2520 3170
2020-07-09 05:00 6.66 472 5620 (1957) 7 (1978) 758 40 40 81 161 253 720 1150 2520 3170
2020-07-09 04:00 6.68 476 5620 (1957) 7 (1978) 758 40 40 81 161 253 720 1150 2520 3170
2020-07-09 03:00 6.69 477 5620 (1957) 7 (1978) 758 40 40 81 161 253 720 1150 2520 3170
2020-07-09 02:00 6.71 481 5620 (1957) 7 (1978) 758 40 40 81 161 253 720 1150 2520 3170
2020-07-09 01:00 6.73 484 5620 (1957) 7 (1978) 758 40 40 81 161 253 720 1150 2520 3170
2020-07-09 00:00 6.74 486 5620 (1957) 7 (1978) 758 40 40 81 161 253 720 1150 2520 3170
2020-07-08 23:00 6.76 490 6650 (1957) 11 (1978) 802 40 40 92 161 279 741 1160 2690 3350
2020-07-08 22:00 6.80 497 6650 (1957) 11 (1978) 802 40 40 92 161 279 741 1160 2690 3350
2020-07-08 21:00 6.83 502 6650 (1957) 11 (1978) 802 40 40 92 161 279 741 1160 2690 3350
2020-07-08 20:00 6.87 509 6650 (1957) 11 (1978) 802 40 40 92 161 279 741 1160 2690 3350
2020-07-08 19:00 6.91 517 6650 (1957) 11 (1978) 802 40 40 92 161 279 741 1160 2690 3350
2020-07-08 18:00 6.96 525 6650 (1957) 11 (1978) 802 40 40 92 161 279 741 1160 2690 3350
2020-07-08 17:00 7.03 537 6650 (1957) 11 (1978) 802 40 40 92 161 279 741 1160 2690 3350
2020-07-08 16:00 7.11 551 6650 (1957) 11 (1978) 802 40 40 92 161 279 741 1160 2690 3350
2020-07-08 15:00 7.22 571 6650 (1957) 11 (1978) 802 40 40 92 161 279 741 1160 2690 3350
2020-07-08 14:00 7.36 597 6650 (1957) 11 (1978) 802 40 40 92 161 279 741 1160 2690 3350
2020-07-08 13:00 7.51 625 6650 (1957) 11 (1978) 802 40 40 92 161 279 741 1160 2690 3350
2020-07-08 12:00 7.52 627 6650 (1957) 11 (1978) 802 40 40 92 161 279 741 1160 2690 3350
2020-07-08 11:00 7.52 627 6650 (1957) 11 (1978) 802 40 40 92 161 279 741 1160 2690 3350
2020-07-08 10:00 7.52 627 6650 (1957) 11 (1978) 802 40 40 92 161 279 741 1160 2690 3350
2020-07-08 09:00 7.53 629 6650 (1957) 11 (1978) 802 40 40 92 161 279 741 1160 2690 3350
2020-07-08 08:00 7.53 629 6650 (1957) 11 (1978) 802 40 40 92 161 279 741 1160 2690 3350
2020-07-08 07:00 7.53 629 6650 (1957) 11 (1978) 802 40 40 92 161 279 741 1160 2690 3350
2020-07-08 06:00 7.53 629 6650 (1957) 11 (1978) 802 40 40 92 161 279 741 1160 2690 3350
2020-07-08 05:00 7.53 629 6650 (1957) 11 (1978) 802 40 40 92 161 279 741 1160 2690 3350
2020-07-08 04:00 7.54 631 6650 (1957) 11 (1978) 802 40 40 92 161 279 741 1160 2690 3350
2020-07-08 03:00 7.53 629 6650 (1957) 11 (1978) 802 40 40 92 161 279 741 1160 2690 3350
2020-07-08 02:00 7.53 629 6650 (1957) 11 (1978) 802 40 40 92 161 279 741 1160 2690 3350
2020-07-08 01:00 7.53 629 6650 (1957) 11 (1978) 802 40 40 92 161 279 741 1160 2690 3350
2020-07-08 00:00 7.53 629 6650 (1957) 11 (1978) 802 40 40 92 161 279 741 1160 2690 3350
2020-07-07 23:00 7.53 629 7730 (1957) 9 (1978) 843 40 40 99 170 301 810 1150 2760 3410
2020-07-07 22:00 7.53 629 7730 (1957) 9 (1978) 843 40 40 99 170 301 810 1150 2760 3410
2020-07-07 21:00 7.53 629 7730 (1957) 9 (1978) 843 40 40 99 170 301 810 1150 2760 3410
2020-07-07 20:00 7.53 629 7730 (1957) 9 (1978) 843 40 40 99 170 301 810 1150 2760 3410
2020-07-07 19:00 7.53 629 7730 (1957) 9 (1978) 843 40 40 99 170 301 810 1150 2760 3410
2020-07-07 18:00 7.53 629 7730 (1957) 9 (1978) 843 40 40 99 170 301 810 1150 2760 3410
2020-07-07 17:00 7.54 631 7730 (1957) 9 (1978) 843 40 40 99 170 301 810 1150 2760 3410
2020-07-07 16:00 7.53 629 7730 (1957) 9 (1978) 843 40 40 99 170 301 810 1150 2760 3410
2020-07-07 15:00 7.54 631 7730 (1957) 9 (1978) 843 40 40 99 170 301 810 1150 2760 3410
2020-07-07 14:00 7.54 631 7730 (1957) 9 (1978) 843 40 40 99 170 301 810 1150 2760 3410
2020-07-07 13:00 7.54 631 7730 (1957) 9 (1978) 843 40 40 99 170 301 810 1150 2760 3410
2020-07-07 12:00 7.54 631 7730 (1957) 9 (1978) 843 40 40 99 170 301 810 1150 2760 3410
2020-07-07 11:00 7.54 631 7730 (1957) 9 (1978) 843 40 40 99 170 301 810 1150 2760 3410
2020-07-07 10:00 7.55 633 7730 (1957) 9 (1978) 843 40 40 99 170 301 810 1150 2760 3410
2020-07-07 09:00 7.55 633 7730 (1957) 9 (1978) 843 40 40 99 170 301 810 1150 2760 3410
2020-07-07 08:00 7.56 635 7730 (1957) 9 (1978) 843 40 40 99 170 301 810 1150 2760 3410
2020-07-07 07:00 7.55 633 7730 (1957) 9 (1978) 843 40 40 99 170 301 810 1150 2760 3410
2020-07-07 06:00 7.56 635 7730 (1957) 9 (1978) 843 40 40 99 170 301 810 1150 2760 3410
2020-07-07 05:00 7.56 635 7730 (1957) 9 (1978) 843 40 40 99 170 301 810 1150 2760 3410
2020-07-07 04:00 7.56 635 7730 (1957) 9 (1978) 843 40 40 99 170 301 810 1150 2760 3410
2020-07-07 03:00 7.55 633 7730 (1957) 9 (1978) 843 40 40 99 170 301 810 1150 2760 3410
2020-07-07 02:00 7.55 633 7730 (1957) 9 (1978) 843 40 40 99 170 301 810 1150 2760 3410
2020-07-07 01:00 7.55 633 7730 (1957) 9 (1978) 843 40 40 99 170 301 810 1150 2760 3410
2020-07-07 00:00 7.55 633 7730 (1957) 9 (1978) 843 40 40 99 170 301 810 1150 2760 3410
2020-07-06 23:00 7.55 633 8700 (1957) 6 (1978) 846 37 40 84 170 312 856 943 2900 3570
2020-07-06 22:00 7.55 633 8700 (1957) 6 (1978) 846 37 40 84 170 312 856 943 2900 3570
2020-07-06 21:00 7.55 633 8700 (1957) 6 (1978) 846 37 40 84 170 312 856 943 2900 3570
2020-07-06 20:00 7.55 633 8700 (1957) 6 (1978) 846 37 40 84 170 312 856 943 2900 3570
2020-07-06 19:00 7.55 633 8700 (1957) 6 (1978) 846 37 40 84 170 312 856 943 2900 3570
2020-07-06 18:00 7.55 633 8700 (1957) 6 (1978) 846 37 40 84 170 312 856 943 2900 3570
2020-07-06 17:00 7.55 633 8700 (1957) 6 (1978) 846 37 40 84 170 312 856 943 2900 3570
2020-07-06 16:00 7.55 633 8700 (1957) 6 (1978) 846 37 40 84 170 312 856 943 2900 3570
2020-07-06 15:00 7.55 633 8700 (1957) 6 (1978) 846 37 40 84 170 312 856 943 2900 3570
2020-07-06 14:00 7.54 631 8700 (1957) 6 (1978) 846 37 40 84 170 312 856 943 2900 3570
2020-07-06 13:00 7.54 631 8700 (1957) 6 (1978) 846 37 40 84 170 312 856 943 2900 3570
2020-07-06 12:00 7.55 633 8700 (1957) 6 (1978) 846 37 40 84 170 312 856 943 2900 3570
2020-07-06 11:00 7.55 633 8700 (1957) 6 (1978) 846 37 40 84 170 312 856 943 2900 3570
2020-07-06 10:00 7.54 631 8700 (1957) 6 (1978) 846 37 40 84 170 312 856 943 2900 3570
2020-07-06 09:00 7.55 633 8700 (1957) 6 (1978) 846 37 40 84 170 312 856 943 2900 3570
2020-07-06 08:00 7.54 631 8700 (1957) 6 (1978) 846 37 40 84 170 312 856 943 2900 3570
2020-07-06 07:00 7.55 633 8700 (1957) 6 (1978) 846 37 40 84 170 312 856 943 2900 3570
2020-07-06 06:00 7.54 631 8700 (1957) 6 (1978) 846 37 40 84 170 312 856 943 2900 3570
2020-07-06 05:00 7.54 631 8700 (1957) 6 (1978) 846 37 40 84 170 312 856 943 2900 3570
2020-07-06 04:00 7.53 629 8700 (1957) 6 (1978) 846 37 40 84 170 312 856 943 2900 3570
2020-07-06 03:00 7.52 627 8700 (1957) 6 (1978) 846 37 40 84 170 312 856 943 2900 3570
2020-07-06 02:00 7.52 627 8700 (1957) 6 (1978) 846 37 40 84 170 312 856 943 2900 3570
2020-07-06 01:00 7.51 625 8700 (1957) 6 (1978) 846 37 40 84 170 312 856 943 2900 3570
2020-07-06 00:00 7.50 623 8700 (1957) 6 (1978) 846 37 40 84 170 312 856 943 2900 3570

A total of 186 rows are displayed for years 1942 through 2019.